Paulatuk Airport
CYPC : now visible

Airfield :











YOU CAN JOIN US ON...

 
LOGIN :

Register | Disclaimer

   EN    FR    IT 

 









Legend :    VFR   Marginal VFR   IFR   Intensive IFR   Very Intensive IFR
Visi :
Ceiling :
>= 8 km
>= 3000ft
5 to 8 km
1000 to 3000 ft
1500m to 5 km
500 to 1000 ft
800 to 1500m
200 to 500 ft
< 800m
< 200 ft
Symbols :   Thunderstorms  Fog  Heavy snow  Heavy precipitations  Wind > 20 kt






- Airport Elevation : 18 ft
- IATA code : YPC


CYPC - Paulatuk

CURRENT METAR :
  • 192100Z 25010KT 15SM FEW055 BKN093 20/12 A3007 RMK CU2CU4 DIST CB TOP S SH S VIRGA W SLP183 DENSITY ALT 400FT

EXPIRED METARs :
  • 192000Z 26006KT 15SM BKN099 19/11 A3007 RMK CU5 DIST TCU TOP SE SLP184 DENSITY ALT 400FT
  • 191900Z 06007KT 15SM FEW090 SCT110 BKN210 16/13 A3007 RMK ACC1AC3CS1 DIST TCU TOP SE SLP185
  • 191800Z 08007KT 15SM FEW100 BKN210 16/12 A3008 RMK ACC2CS3 SLP187
  • 191700Z 07005KT 15SM FEW012 FEW070 SCT100 SCT210 14/11 A3009 RMK SC1ACC1AC3CI1 SC TR ACC TR VIRGA N SLP190

TAF TAF CYPC
Valid from the 19 at 19:00 until the 19 at 23:00 UTC


191840Z 1919/1923 08006KT P6SM FEW100 BKN210
TEMPO 1921/1923 P6SM VCTS BKN050CB
BECMG 1921/1923 25012KT RMK NXT FCST BY 201500Z
CZEG FIR / North America



MET'MAP, your aeronautical weather chart ! - Copyright ORBIFLY December 2007 - Disclaimer

ORBIFLY MET'MAP TEAM :

Programming & Development : Alexandra Zaïnal
Original concept : Baudouin d'Aumeries
Technical & hardware support : Manuel Goepfert
Assistance : Marc-Olivier Méhu




SOURCES & CREDITS :

   NOAA       Earth
Advisory